createdAt,value
2023-05-09T00:00:46.491Z,65.10
2023-05-09T00:03:14.348Z,65.00
2023-05-09T00:05:41.881Z,66.00
2023-05-09T00:08:08.802Z,66.00
2023-05-09T00:10:35.720Z,65.60
2023-05-09T00:13:02.626Z,65.70
2023-05-09T00:15:30.421Z,66.70
2023-05-09T00:17:57.253Z,66.20
2023-05-09T00:20:24.169Z,67.30
2023-05-09T00:22:51.202Z,67.90
2023-05-09T00:25:18.016Z,67.60
2023-05-09T00:27:44.784Z,68.00
2023-05-09T00:30:11.852Z,67.80
2023-05-09T00:32:40.257Z,68.60
2023-05-09T00:35:08.655Z,67.70
2023-05-09T00:37:35.441Z,68.10
2023-05-09T00:40:03.007Z,67.70
2023-05-09T00:42:29.844Z,68.80
2023-05-09T00:44:56.726Z,69.10
2023-05-09T00:47:24.285Z,68.70
2023-05-09T00:49:51.189Z,68.80
2023-05-09T00:52:21.493Z,68.60
2023-05-09T00:54:48.240Z,70.20
2023-05-09T00:57:14.971Z,70.40
2023-05-09T00:59:42.012Z,70.10
2023-05-09T01:02:08.773Z,70.40
2023-05-09T01:04:35.793Z,70.50
2023-05-09T01:07:20.674Z,71.10
2023-05-09T01:09:59.460Z,70.40
2023-05-09T01:12:47.865Z,70.20
2023-05-09T01:15:34.316Z,71.10
2023-05-09T01:18:14.682Z,71.40
2023-05-09T01:21:08.836Z,71.00
2023-05-09T01:23:44.811Z,71.60
2023-05-09T01:26:32.545Z,71.40
2023-05-09T01:29:27.851Z,71.00
2023-05-09T01:31:56.680Z,71.80
2023-05-09T01:34:26.787Z,71.50
2023-05-09T01:36:58.737Z,71.20
2023-05-09T01:39:28.371Z,70.60
2023-05-09T01:41:57.932Z,70.90
2023-05-09T01:44:26.772Z,71.80
2023-05-09T01:46:55.959Z,71.90
2023-05-09T01:49:23.938Z,71.70
2023-05-09T01:51:52.304Z,71.90
2023-05-09T01:54:20.751Z,72.20
2023-05-09T01:56:48.537Z,71.80
2023-05-09T01:59:16.313Z,72.50
2023-05-09T02:01:44.757Z,71.20
2023-05-09T02:04:12.806Z,71.80
2023-05-09T02:06:40.768Z,71.70
2023-05-09T02:09:08.451Z,71.60
2023-05-09T02:11:35.200Z,71.40
2023-05-09T02:14:01.965Z,71.70
2023-05-09T02:16:30.052Z,72.10
2023-05-09T02:18:56.826Z,70.80
2023-05-09T02:21:23.706Z,71.60
2023-05-09T02:23:50.574Z,71.00
2023-05-09T02:26:17.804Z,71.40
2023-05-09T02:28:45.604Z,71.00
2023-05-09T02:31:14.044Z,70.40
2023-05-09T02:33:42.826Z,70.40
2023-05-09T02:36:10.366Z,70.80
2023-05-09T02:38:37.399Z,70.10
2023-05-09T02:41:04.226Z,69.90
2023-05-09T02:43:31.040Z,69.10
2023-05-09T02:45:57.956Z,69.70
2023-05-09T02:48:24.819Z,68.90
2023-05-09T02:50:51.539Z,70.50
2023-05-09T02:53:18.289Z,68.60
2023-05-09T02:55:45.142Z,68.80
2023-05-09T02:58:14.633Z,68.00
2023-05-09T03:00:42.659Z,68.30
2023-05-09T03:03:09.965Z,67.90
2023-05-09T03:05:37.236Z,68.10
2023-05-09T03:08:04.284Z,68.10
2023-05-09T03:10:31.082Z,67.50
2023-05-09T03:12:57.932Z,67.40
2023-05-09T03:15:24.803Z,66.60
2023-05-09T03:17:51.725Z,67.00
2023-05-09T03:20:19.112Z,67.00
2023-05-09T03:22:45.933Z,67.30
2023-05-09T03:25:13.120Z,66.80
2023-05-09T03:27:40.414Z,66.90
2023-05-09T03:30:07.757Z,66.70
2023-05-09T03:32:34.662Z,66.50
2023-05-09T03:35:01.538Z,67.40
2023-05-09T03:37:28.452Z,66.90
2023-05-09T03:39:55.287Z,66.60
2023-05-09T03:42:22.979Z,66.50
2023-05-09T03:44:49.788Z,66.70
2023-05-09T03:47:16.662Z,66.70
2023-05-09T03:49:43.479Z,66.80
2023-05-09T03:52:10.415Z,66.90
2023-05-09T03:54:37.179Z,67.20
2023-05-09T03:57:04.087Z,66.80
2023-05-09T03:59:30.850Z,66.50
2023-05-09T04:01:58.776Z,66.30
2023-05-09T04:04:25.647Z,67.10
2023-05-09T04:06:52.481Z,66.40
2023-05-09T04:09:19.373Z,66.80
2023-05-09T04:11:46.702Z,65.80
2023-05-09T04:14:13.665Z,66.10
2023-05-09T04:16:40.489Z,65.30
2023-05-09T04:19:07.522Z,66.10
2023-05-09T04:21:34.336Z,64.70
2023-05-09T04:24:01.240Z,65.00
2023-05-09T04:26:28.187Z,65.10
2023-05-09T04:28:55.007Z,64.70
2023-05-09T04:31:23.084Z,64.10
2023-05-09T04:33:49.896Z,64.30
2023-05-09T04:36:17.074Z,64.30
2023-05-09T04:38:43.842Z,64.50
2023-05-09T04:41:10.954Z,64.00
2023-05-09T04:43:37.750Z,63.70
2023-05-09T04:46:04.583Z,62.90
2023-05-09T04:48:31.515Z,63.10
2023-05-09T04:50:58.297Z,63.40
2023-05-09T04:53:25.016Z,62.90
2023-05-09T04:55:51.991Z,62.00
2023-05-09T04:58:18.984Z,62.30
2023-05-09T05:00:46.468Z,63.60
2023-05-09T05:03:13.471Z,63.50
2023-05-09T05:05:41.500Z,63.10
2023-05-09T05:08:08.296Z,62.90
2023-05-09T05:10:35.452Z,63.20
2023-05-09T05:13:02.426Z,62.90
2023-05-09T05:15:29.334Z,62.20
2023-05-09T05:17:56.755Z,62.60
2023-05-09T05:20:23.786Z,61.60
2023-05-09T05:22:50.666Z,62.50
2023-05-09T05:25:18.627Z,61.80
2023-05-09T05:27:45.529Z,61.40
2023-05-09T05:30:15.384Z,61.20
2023-05-09T05:32:42.543Z,61.00
2023-05-09T05:35:11.938Z,60.70
2023-05-09T05:37:40.330Z,61.20
2023-05-09T05:40:08.196Z,60.30
2023-05-09T05:42:35.232Z,59.90
2023-05-09T05:45:04.404Z,59.80
2023-05-09T05:47:35.563Z,59.60
2023-05-09T05:50:04.315Z,60.00
2023-05-09T05:52:31.382Z,59.00
2023-05-09T05:54:58.331Z,60.20
2023-05-09T05:57:25.277Z,59.20
2023-05-09T05:59:52.039Z,59.50
2023-05-09T06:02:18.998Z,59.80
2023-05-09T06:04:45.943Z,58.70
2023-05-09T06:07:14.105Z,59.60
2023-05-09T06:09:41.045Z,58.10
2023-05-09T06:12:08.023Z,58.50
2023-05-09T06:14:34.932Z,56.80
2023-05-09T06:17:01.749Z,56.80
2023-05-09T06:19:28.614Z,53.70
2023-05-09T06:21:55.542Z,55.60
2023-05-09T06:24:34.609Z,53.80
2023-05-09T06:27:02.342Z,52.70
2023-05-09T06:29:29.164Z,53.40
2023-05-09T06:31:55.961Z,51.40
2023-05-09T06:34:22.860Z,48.40
2023-05-09T06:36:49.705Z,49.10
2023-05-09T06:39:16.526Z,48.50
2023-05-09T06:41:43.294Z,47.40
2023-05-09T06:44:10.366Z,46.10
2023-05-09T06:46:37.178Z,43.80
2023-05-09T06:49:04.079Z,44.20
2023-05-09T06:51:31.057Z,42.80
2023-05-09T06:53:57.946Z,42.70
2023-05-09T06:56:25.330Z,42.80
2023-05-09T06:58:52.120Z,42.00
2023-05-09T07:01:18.976Z,41.70
2023-05-09T07:03:47.501Z,41.40
2023-05-09T07:06:14.501Z,39.70
2023-05-09T07:08:41.353Z,40.60
2023-05-09T07:11:08.197Z,40.30
2023-05-09T07:13:34.986Z,39.60
2023-05-09T07:16:01.917Z,40.20
2023-05-09T07:18:29.804Z,39.50
2023-05-09T07:21:02.021Z,40.20
2023-05-09T07:23:28.917Z,41.00
2023-05-09T07:25:58.947Z,40.80
2023-05-09T07:28:26.328Z,40.50
2023-05-09T07:30:55.912Z,41.00
2023-05-09T07:33:22.842Z,40.20
2023-05-09T07:35:49.880Z,40.50
2023-05-09T07:38:16.727Z,39.70
2023-05-09T07:40:43.523Z,39.90
2023-05-09T07:43:10.666Z,39.30
2023-05-09T07:45:37.479Z,39.10
2023-05-09T07:48:04.624Z,39.80
2023-05-09T07:50:31.569Z,37.90
2023-05-09T07:52:58.481Z,39.60
2023-05-09T07:55:25.325Z,39.10
2023-05-09T07:57:52.184Z,39.10
2023-05-09T08:00:23.738Z,38.50
2023-05-09T08:02:51.821Z,38.30
2023-05-09T08:05:19.053Z,38.20
2023-05-09T08:07:46.240Z,38.00
2023-05-09T08:10:13.373Z,38.70
2023-05-09T08:12:40.236Z,38.60
2023-05-09T08:15:07.987Z,38.80
2023-05-09T08:17:34.806Z,38.50
2023-05-09T08:20:01.683Z,38.40
2023-05-09T08:22:28.449Z,37.30
2023-05-09T08:24:55.250Z,36.80
2023-05-09T08:27:21.997Z,37.80
2023-05-09T08:29:48.821Z,37.10
2023-05-09T08:32:15.611Z,38.30
2023-05-09T08:34:42.442Z,38.10
2023-05-09T08:37:09.238Z,38.60
2023-05-09T08:39:36.059Z,37.10
2023-05-09T08:42:03.391Z,37.10
2023-05-09T08:44:31.448Z,37.40
2023-05-09T08:47:03.530Z,37.10
2023-05-09T08:49:30.777Z,36.90
2023-05-09T08:51:57.996Z,36.50
2023-05-09T08:54:25.249Z,38.00
2023-05-09T08:56:52.233Z,36.40
2023-05-09T08:59:19.736Z,37.00
2023-05-09T09:01:47.561Z,36.30
2023-05-09T09:04:14.765Z,35.90
2023-05-09T09:06:42.763Z,35.00
2023-05-09T09:09:11.530Z,35.70
2023-05-09T09:11:40.296Z,34.20
2023-05-09T09:14:15.337Z,33.60
2023-05-09T09:16:43.607Z,34.20
2023-05-09T09:19:13.334Z,33.70
2023-05-09T09:21:49.741Z,34.30
2023-05-09T09:24:20.307Z,32.70
2023-05-09T09:26:48.924Z,33.40
2023-05-09T09:29:16.974Z,33.20
2023-05-09T09:31:48.237Z,32.60
2023-05-09T09:34:24.120Z,33.50
2023-05-09T09:36:51.572Z,32.20
2023-05-09T09:39:18.540Z,33.30
2023-05-09T09:41:45.658Z,32.20
2023-05-09T09:44:13.917Z,30.50
2023-05-09T09:46:46.657Z,30.10
2023-05-09T09:49:14.879Z,30.90
2023-05-09T09:51:42.428Z,31.30
2023-05-09T09:54:11.311Z,31.10
2023-05-09T09:56:42.681Z,31.20
2023-05-09T09:59:17.545Z,29.70
2023-05-09T10:02:01.573Z,29.90
2023-05-09T10:04:35.442Z,29.20
2023-05-09T10:07:05.121Z,29.90
2023-05-09T10:09:33.928Z,29.60
2023-05-09T10:12:06.515Z,29.70
2023-05-09T10:14:36.332Z,29.80
2023-05-09T10:17:05.228Z,30.40
2023-05-09T10:19:32.989Z,30.20
2023-05-09T10:22:05.321Z,29.50
2023-05-09T10:24:47.583Z,28.60
2023-05-09T10:27:17.900Z,29.00
2023-05-09T10:30:17.106Z,29.00
2023-05-09T10:32:49.762Z,28.90
2023-05-09T10:35:18.301Z,29.20
2023-05-09T10:37:48.581Z,29.10
2023-05-09T10:40:15.905Z,29.30
2023-05-09T10:42:43.886Z,28.10
2023-05-09T10:45:14.136Z,28.60
2023-05-09T10:47:43.475Z,28.40
2023-05-09T10:50:14.652Z,28.70
2023-05-09T10:53:14.011Z,29.40
2023-05-09T10:55:46.863Z,28.70
2023-05-09T10:58:22.857Z,27.40
2023-05-09T11:00:51.212Z,28.70
2023-05-09T11:03:19.445Z,28.50
2023-05-09T11:05:48.761Z,26.80
2023-05-09T11:08:28.644Z,28.70
2023-05-09T11:10:57.967Z,27.60
2023-05-09T11:13:26.389Z,29.10
2023-05-09T11:16:02.217Z,28.10
2023-05-09T11:18:30.107Z,29.90
2023-05-09T11:20:57.053Z,27.80
2023-05-09T11:23:27.857Z,30.80
2023-05-09T11:26:06.488Z,29.10
2023-05-09T11:28:36.651Z,28.60
2023-05-09T11:31:18.263Z,28.00
2023-05-09T11:33:49.078Z,28.30
2023-05-09T11:36:18.659Z,29.10
2023-05-09T11:38:47.208Z,30.70
2023-05-09T11:41:14.317Z,29.80
2023-05-09T11:43:43.090Z,29.70
2023-05-09T11:46:10.017Z,29.40
2023-05-09T11:48:41.881Z,28.10
2023-05-09T11:51:18.357Z,28.20
2023-05-09T11:53:51.295Z,27.60
2023-05-09T11:56:18.474Z,27.20
2023-05-09T11:58:46.757Z,27.30
2023-05-09T12:01:13.696Z,28.10
2023-05-09T12:03:47.460Z,28.10
2023-05-09T12:06:16.770Z,28.30
2023-05-09T12:08:47.156Z,26.70
2023-05-09T12:11:15.331Z,28.20
2023-05-09T12:14:00.390Z,28.30
2023-05-09T12:16:27.208Z,27.90
2023-05-09T12:18:54.821Z,26.30
2023-05-09T12:21:22.220Z,27.80
2023-05-09T12:23:51.172Z,26.40
2023-05-09T12:26:19.162Z,26.90
2023-05-09T12:28:47.163Z,28.10
2023-05-09T12:31:14.222Z,27.30
2023-05-09T12:33:41.147Z,27.10
2023-05-09T12:36:12.648Z,26.20
2023-05-09T12:38:39.560Z,27.00
2023-05-09T12:41:10.693Z,26.20
2023-05-09T12:43:49.120Z,26.60
2023-05-09T12:46:20.223Z,27.90
2023-05-09T12:48:48.642Z,27.20
2023-05-09T12:51:20.782Z,27.90
2023-05-09T12:53:48.144Z,27.50
2023-05-09T12:56:16.519Z,28.50
2023-05-09T12:58:55.882Z,27.60
2023-05-09T13:01:29.664Z,27.00
2023-05-09T13:04:04.437Z,27.40
2023-05-09T13:06:31.271Z,28.00
2023-05-09T13:09:02.800Z,28.10
2023-05-09T13:11:30.001Z,28.20
2023-05-09T13:13:57.126Z,27.20
2023-05-09T13:16:24.285Z,28.20
2023-05-09T13:18:51.152Z,28.80
2023-05-09T13:21:18.087Z,27.80
2023-05-09T13:23:45.481Z,29.00
2023-05-09T13:26:12.500Z,29.20
2023-05-09T13:28:39.296Z,28.90
2023-05-09T13:31:06.921Z,29.80
2023-05-09T13:33:34.078Z,29.70
2023-05-09T13:36:01.081Z,28.60
2023-05-09T13:38:30.756Z,27.50
2023-05-09T13:40:57.854Z,28.50
2023-05-09T13:43:24.627Z,29.10
2023-05-09T13:45:51.463Z,28.00
2023-05-09T13:48:18.240Z,29.20
2023-05-09T13:50:45.681Z,29.40
2023-05-09T13:53:12.571Z,29.40
2023-05-09T13:55:39.391Z,29.30
2023-05-09T13:58:06.458Z,28.10
2023-05-09T14:00:33.729Z,28.70
2023-05-09T14:03:02.671Z,28.00
2023-05-09T14:05:32.066Z,30.50
2023-05-09T14:07:59.014Z,29.60
2023-05-09T14:10:26.899Z,28.30
2023-05-09T14:12:54.194Z,28.00
2023-05-09T14:15:21.043Z,28.00
2023-05-09T14:17:47.906Z,28.70
2023-05-09T14:20:16.036Z,28.80
2023-05-09T14:22:43.297Z,28.00
2023-05-09T14:25:10.252Z,28.30
2023-05-09T14:27:37.260Z,28.60
2023-05-09T14:30:05.040Z,29.40
2023-05-09T14:32:31.817Z,28.60
2023-05-09T14:34:58.795Z,28.70
2023-05-09T14:37:25.625Z,29.50
2023-05-09T14:39:52.473Z,29.50
2023-05-09T14:42:19.749Z,30.00
2023-05-09T14:44:47.315Z,30.80
2023-05-09T14:47:14.319Z,30.60
2023-05-09T14:49:41.425Z,30.40
2023-05-09T14:52:08.221Z,30.50
2023-05-09T14:54:35.092Z,29.70
2023-05-09T14:57:04.489Z,29.40
2023-05-09T14:59:31.536Z,29.30
2023-05-09T15:01:58.355Z,30.60
2023-05-09T15:04:28.422Z,29.20
2023-05-09T15:06:55.277Z,29.70
2023-05-09T15:09:22.560Z,29.90
2023-05-09T15:11:49.509Z,29.00
2023-05-09T15:14:16.819Z,30.30
2023-05-09T15:16:44.477Z,31.20
2023-05-09T15:19:11.468Z,30.50
2023-05-09T15:21:38.264Z,28.50
2023-05-09T15:24:05.492Z,30.70
2023-05-09T15:26:32.538Z,28.70
2023-05-09T15:28:59.595Z,29.10
2023-05-09T15:31:26.689Z,30.70
2023-05-09T15:33:53.737Z,30.20
2023-05-09T15:36:20.522Z,29.80
2023-05-09T15:38:49.436Z,29.10
2023-05-09T15:41:20.057Z,29.40
2023-05-09T15:43:46.854Z,28.60
2023-05-09T15:46:13.702Z,29.60
2023-05-09T15:48:40.519Z,29.30
2023-05-09T15:51:08.681Z,30.90
2023-05-09T15:53:36.501Z,35.90
2023-05-09T15:56:03.792Z,33.10
2023-05-09T15:58:31.063Z,34.90
2023-05-09T16:00:57.883Z,33.20
2023-05-09T16:03:28.131Z,32.20
2023-05-09T16:05:55.081Z,32.60
2023-05-09T16:08:21.851Z,33.50
2023-05-09T16:10:49.235Z,31.60
2023-05-09T16:13:19.245Z,32.90
2023-05-09T16:15:47.891Z,31.50
2023-05-09T16:18:14.693Z,31.60
2023-05-09T16:20:43.934Z,32.40
2023-05-09T16:23:11.259Z,32.90
2023-05-09T16:25:38.062Z,30.70
2023-05-09T16:28:06.872Z,31.00
2023-05-09T16:30:33.753Z,32.10
2023-05-09T16:33:00.569Z,32.60
2023-05-09T16:35:27.491Z,31.30
2023-05-09T16:37:54.388Z,32.50
2023-05-09T16:40:21.545Z,32.10
2023-05-09T16:42:49.323Z,31.30
2023-05-09T16:45:16.271Z,31.30
2023-05-09T16:47:43.088Z,31.40
2023-05-09T16:50:10.588Z,32.40
2023-05-09T16:52:37.682Z,32.10
2023-05-09T16:55:04.816Z,31.50
2023-05-09T16:57:31.721Z,32.00
2023-05-09T16:59:58.511Z,31.30
2023-05-09T17:02:25.761Z,31.90
2023-05-09T17:04:52.663Z,32.30
2023-05-09T17:07:20.048Z,32.80
2023-05-09T17:09:48.283Z,33.20
2023-05-09T17:12:17.957Z,33.60
2023-05-09T17:14:45.720Z,34.70
2023-05-09T17:17:13.523Z,34.20
2023-05-09T17:19:40.736Z,33.50
2023-05-09T17:22:08.045Z,34.10
2023-05-09T17:24:34.932Z,34.00
2023-05-09T17:27:02.088Z,33.80
2023-05-09T17:29:30.958Z,33.90
2023-05-09T17:32:00.875Z,34.00
2023-05-09T17:34:28.902Z,34.40
2023-05-09T17:36:56.229Z,34.80
2023-05-09T17:39:23.374Z,34.90
2023-05-09T17:41:50.121Z,36.10
2023-05-09T17:44:16.930Z,35.60
2023-05-09T17:46:44.059Z,35.40
2023-05-09T17:49:13.807Z,36.20
2023-05-09T17:51:40.776Z,36.40
2023-05-09T17:54:07.634Z,36.70
2023-05-09T17:56:34.746Z,36.80
2023-05-09T17:59:01.604Z,36.50
2023-05-09T18:01:29.019Z,36.60
2023-05-09T18:03:57.145Z,37.80
2023-05-09T18:06:24.096Z,37.70
2023-05-09T18:08:50.988Z,37.40
2023-05-09T18:11:17.913Z,38.30
2023-05-09T18:13:44.666Z,38.40
2023-05-09T18:16:11.534Z,37.60
2023-05-09T18:18:38.346Z,37.90
2023-05-09T18:21:05.403Z,39.10
2023-05-09T18:23:32.257Z,38.50
2023-05-09T18:25:59.267Z,38.10
2023-05-09T18:28:26.282Z,38.30
2023-05-09T18:30:58.501Z,38.10
2023-05-09T18:33:26.609Z,39.30
2023-05-09T18:35:54.265Z,38.70
2023-05-09T18:38:21.376Z,38.90
2023-05-09T18:40:48.456Z,38.60
2023-05-09T18:43:16.868Z,39.20
2023-05-09T18:45:45.113Z,39.40
2023-05-09T18:48:12.346Z,39.40
2023-05-09T18:50:39.350Z,39.90
2023-05-09T18:53:06.128Z,40.40
2023-05-09T18:55:32.892Z,40.00
2023-05-09T18:58:00.167Z,40.90
2023-05-09T19:00:26.957Z,40.60
2023-05-09T19:02:53.866Z,40.20
2023-05-09T19:05:20.805Z,40.90
2023-05-09T19:07:47.547Z,40.50
2023-05-09T19:10:17.894Z,40.80
2023-05-09T19:12:46.030Z,41.20
2023-05-09T19:15:12.986Z,42.10
2023-05-09T19:17:40.239Z,41.60
2023-05-09T19:20:08.452Z,41.90
2023-05-09T19:22:36.159Z,42.60
2023-05-09T19:25:03.094Z,43.20
2023-05-09T19:27:29.864Z,43.50
2023-05-09T19:29:56.731Z,45.30
2023-05-09T19:32:23.511Z,45.00
2023-05-09T19:34:50.731Z,45.70
2023-05-09T19:37:17.535Z,45.90
2023-05-09T19:39:44.320Z,46.60
2023-05-09T19:42:11.180Z,46.60
2023-05-09T19:44:38.893Z,45.90
2023-05-09T19:47:05.865Z,47.10
2023-05-09T19:49:32.754Z,47.40
2023-05-09T19:51:59.614Z,47.30
2023-05-09T19:54:27.063Z,47.20
2023-05-09T19:56:53.947Z,48.10
2023-05-09T19:59:21.040Z,47.80
2023-05-09T20:01:47.889Z,48.00
2023-05-09T20:04:14.769Z,48.50
2023-05-09T20:06:41.530Z,48.90
2023-05-09T20:09:08.430Z,48.50
2023-05-09T20:11:35.230Z,47.60
2023-05-09T20:14:02.379Z,48.70
2023-05-09T20:16:29.214Z,49.00
2023-05-09T20:18:56.077Z,49.70
2023-05-09T20:21:22.880Z,48.90
2023-05-09T20:23:49.672Z,49.10
2023-05-09T20:26:16.413Z,49.20
2023-05-09T20:28:43.270Z,48.90
2023-05-09T20:31:10.151Z,49.20
2023-05-09T20:33:37.030Z,49.30
2023-05-09T20:36:06.504Z,49.00
2023-05-09T20:38:33.367Z,49.00
2023-05-09T20:41:00.065Z,49.30
2023-05-09T20:43:26.834Z,50.90
2023-05-09T20:45:54.015Z,50.60
2023-05-09T20:48:23.415Z,50.00
2023-05-09T20:50:50.551Z,50.80
2023-05-09T20:53:17.359Z,50.70
2023-05-09T20:55:44.141Z,50.50
2023-05-09T20:58:14.716Z,51.70
2023-05-09T21:00:41.586Z,51.30
2023-05-09T21:03:10.075Z,51.30
2023-05-09T21:05:37.062Z,51.30
2023-05-09T21:08:04.001Z,51.70
2023-05-09T21:10:30.946Z,51.90
2023-05-09T21:12:57.880Z,51.70
2023-05-09T21:15:24.811Z,51.80
2023-05-09T21:17:51.631Z,51.70
2023-05-09T21:20:18.740Z,51.80
2023-05-09T21:22:46.079Z,51.70
2023-05-09T21:25:12.962Z,52.70
2023-05-09T21:27:39.733Z,53.10
2023-05-09T21:30:07.285Z,52.60
2023-05-09T21:32:34.159Z,52.70
2023-05-09T21:35:02.062Z,53.10
2023-05-09T21:37:29.017Z,53.30
2023-05-09T21:39:55.770Z,53.20
2023-05-09T21:42:23.934Z,53.40
2023-05-09T21:44:50.719Z,54.10
2023-05-09T21:47:17.611Z,53.70
2023-05-09T21:49:44.429Z,53.50
2023-05-09T21:52:11.247Z,54.40
2023-05-09T21:54:38.050Z,54.50
2023-05-09T21:57:05.309Z,54.60
2023-05-09T21:59:32.883Z,55.40
2023-05-09T22:01:59.622Z,54.40
2023-05-09T22:04:26.569Z,54.80
2023-05-09T22:06:53.299Z,55.30
2023-05-09T22:09:20.181Z,55.30
2023-05-09T22:11:47.094Z,55.60
2023-05-09T22:14:13.997Z,55.90
2023-05-09T22:16:41.102Z,55.50
2023-05-09T22:19:07.921Z,55.70
2023-05-09T22:21:34.761Z,56.10
2023-05-09T22:24:01.596Z,56.30
2023-05-09T22:26:28.579Z,56.80
2023-05-09T22:28:55.400Z,57.10
2023-05-09T22:31:22.748Z,56.20
2023-05-09T22:33:49.569Z,57.70
2023-05-09T22:36:17.124Z,56.70
2023-05-09T22:38:43.981Z,57.30
2023-05-09T22:41:10.827Z,57.00
2023-05-09T22:43:39.495Z,57.40
2023-05-09T22:46:06.959Z,58.20
2023-05-09T22:48:33.772Z,57.80
2023-05-09T22:51:00.764Z,57.80
2023-05-09T22:53:28.089Z,57.80
2023-05-09T22:55:54.927Z,58.40
2023-05-09T22:58:22.447Z,58.70
2023-05-09T23:00:49.316Z,58.70
2023-05-09T23:03:16.526Z,58.80
2023-05-09T23:05:43.509Z,59.20
2023-05-09T23:08:10.559Z,59.20
2023-05-09T23:10:37.348Z,59.70
2023-05-09T23:13:04.801Z,59.60
2023-05-09T23:15:31.802Z,59.40
2023-05-09T23:17:58.757Z,59.30
2023-05-09T23:20:26.549Z,59.90
2023-05-09T23:22:53.270Z,59.20
2023-05-09T23:25:20.160Z,59.70
2023-05-09T23:27:47.037Z,60.60
2023-05-09T23:30:14.265Z,60.10
2023-05-09T23:32:41.248Z,60.50
2023-05-09T23:35:08.322Z,61.00
2023-05-09T23:37:35.058Z,61.20
2023-05-09T23:40:03.812Z,61.30
2023-05-09T23:42:30.890Z,61.20
2023-05-09T23:44:57.735Z,60.50
2023-05-09T23:47:24.651Z,61.50
2023-05-09T23:49:51.428Z,61.10
2023-05-09T23:52:18.190Z,60.80
2023-05-09T23:54:44.978Z,61.20
2023-05-09T23:57:11.692Z,61.80
2023-05-09T23:59:38.480Z,62.20
